sensor_id;sensor_type;location;lat;lon;timestamp;temperature;humidity
23435;DHT22;11890;45.380;11.028;2022-09-09T00:02:25;25.40;99.90
23435;DHT22;11890;45.380;11.028;2022-09-09T00:05:18;25.40;99.90
23435;DHT22;11890;45.380;11.028;2022-09-09T00:07:52;25.40;99.90
23435;DHT22;11890;45.380;11.028;2022-09-09T00:10:29;25.40;99.90
23435;DHT22;11890;45.380;11.028;2022-09-09T00:24:42;25.10;99.90
23435;DHT22;11890;45.380;11.028;2022-09-09T00:27:31;25.10;99.90
23435;DHT22;11890;45.380;11.028;2022-09-09T00:30:26;25.10;99.90
23435;DHT22;11890;45.380;11.028;2022-09-09T00:32:59;25.10;99.90
23435;DHT22;11890;45.380;11.028;2022-09-09T00:35:48;25.10;99.90
23435;DHT22;11890;45.380;11.028;2022-09-09T00:38:31;25.00;99.90
23435;DHT22;11890;45.380;11.028;2022-09-09T00:50:15;24.80;99.90
23435;DHT22;11890;45.380;11.028;2022-09-09T00:53:51;24.90;99.90
23435;DHT22;11890;45.380;11.028;2022-09-09T00:56:38;24.80;99.90
23435;DHT22;11890;45.380;11.028;2022-09-09T01:11:21;24.90;99.90
23435;DHT22;11890;45.380;11.028;2022-09-09T01:13:58;24.90;99.90
23435;DHT22;11890;45.380;11.028;2022-09-09T01:16:31;24.90;99.90
23435;DHT22;11890;45.380;11.028;2022-09-09T01:19:01;24.90;99.90
23435;DHT22;11890;45.380;11.028;2022-09-09T01:21:54;24.80;99.90
23435;DHT22;11890;45.380;11.028;2022-09-09T01:24:40;24.80;99.90
23435;DHT22;11890;45.380;11.028;2022-09-09T01:27:33;24.80;99.90
23435;DHT22;11890;45.380;11.028;2022-09-09T01:30:13;24.80;99.90
23435;DHT22;11890;45.380;11.028;2022-09-09T01:32:43;24.80;99.90
23435;DHT22;11890;45.380;11.028;2022-09-09T01:35:57;24.80;99.90
23435;DHT22;11890;45.380;11.028;2022-09-09T01:38:28;24.70;99.90
23435;DHT22;11890;45.380;11.028;2022-09-09T01:40:55;24.70;99.90
23435;DHT22;11890;45.380;11.028;2022-09-09T01:43:29;24.70;99.90
23435;DHT22;11890;45.380;11.028;2022-09-09T01:46:00;24.70;99.90
23435;DHT22;11890;45.380;11.028;2022-09-09T01:48:29;24.70;99.90
23435;DHT22;11890;45.380;11.028;2022-09-09T01:51:08;24.70;99.90
23435;DHT22;11890;45.380;11.028;2022-09-09T01:53:44;24.60;99.90
23435;DHT22;11890;45.380;11.028;2022-09-09T01:59:42;24.60;99.90
23435;DHT22;11890;45.380;11.028;2022-09-09T02:05:32;24.50;99.90
23435;DHT22;11890;45.380;11.028;2022-09-09T02:08:17;24.50;99.90
23435;DHT22;11890;45.380;11.028;2022-09-09T02:11:07;24.50;99.90
23435;DHT22;11890;45.380;11.028;2022-09-09T02:13:48;24.50;99.90
23435;DHT22;11890;45.380;11.028;2022-09-09T02:16:31;24.40;99.90
23435;DHT22;11890;45.380;11.028;2022-09-09T02:19:22;24.40;99.90
23435;DHT22;11890;45.380;11.028;2022-09-09T02:22:11;24.40;99.90
23435;DHT22;11890;45.380;11.028;2022-09-09T02:24:39;24.40;99.90
23435;DHT22;11890;45.380;11.028;2022-09-09T02:27:20;24.40;99.90
23435;DHT22;11890;45.380;11.028;2022-09-09T02:29:52;24.40;99.90
23435;DHT22;11890;45.380;11.028;2022-09-09T02:32:37;24.40;99.90
23435;DHT22;11890;45.380;11.028;2022-09-09T02:35:13;24.40;99.90
23435;DHT22;11890;45.380;11.028;2022-09-09T02:37:44;24.40;99.90
23435;DHT22;11890;45.380;11.028;2022-09-09T02:40:15;24.40;99.90
23435;DHT22;11890;45.380;11.028;2022-09-09T02:42:50;24.40;99.90
23435;DHT22;11890;45.380;11.028;2022-09-09T02:45:24;24.40;99.90
23435;DHT22;11890;45.380;11.028;2022-09-09T02:50:34;24.50;99.90
23435;DHT22;11890;45.380;11.028;2022-09-09T02:53:18;24.50;99.90
23435;DHT22;11890;45.380;11.028;2022-09-09T02:56:10;24.50;99.90
23435;DHT22;11890;45.380;11.028;2022-09-09T02:58:57;24.50;99.90
23435;DHT22;11890;45.380;11.028;2022-09-09T03:01:27;24.50;99.90
23435;DHT22;11890;45.380;11.028;2022-09-09T03:03:54;24.60;99.90
23435;DHT22;11890;45.380;11.028;2022-09-09T03:06:25;24.50;99.90
23435;DHT22;11890;45.380;11.028;2022-09-09T03:09:04;24.50;99.90
23435;DHT22;11890;45.380;11.028;2022-09-09T03:11:32;24.50;99.90
23435;DHT22;11890;45.380;11.028;2022-09-09T03:14:00;24.50;99.90
23435;DHT22;11890;45.380;11.028;2022-09-09T03:16:34;24.40;99.90
23435;DHT22;11890;45.380;11.028;2022-09-09T03:19:09;24.40;99.90
23435;DHT22;11890;45.380;11.028;2022-09-09T03:21:37;24.50;99.90
23435;DHT22;11890;45.380;11.028;2022-09-09T03:24:05;24.40;99.90
23435;DHT22;11890;45.380;11.028;2022-09-09T03:26:33;24.40;99.90
23435;DHT22;11890;45.380;11.028;2022-09-09T03:29:01;24.40;99.90
23435;DHT22;11890;45.380;11.028;2022-09-09T03:31:30;24.50;99.90
23435;DHT22;11890;45.380;11.028;2022-09-09T03:34:09;24.50;99.90
23435;DHT22;11890;45.380;11.028;2022-09-09T03:36:37;24.50;99.90
23435;DHT22;11890;45.380;11.028;2022-09-09T03:39:05;24.50;99.90
23435;DHT22;11890;45.380;11.028;2022-09-09T03:41:32;24.50;99.90
23435;DHT22;11890;45.380;11.028;2022-09-09T03:44:18;24.50;99.90
23435;DHT22;11890;45.380;11.028;2022-09-09T03:46:50;24.50;99.90
23435;DHT22;11890;45.380;11.028;2022-09-09T03:49:17;24.40;99.90
23435;DHT22;11890;45.380;11.028;2022-09-09T03:51:45;24.50;99.90
23435;DHT22;11890;45.380;11.028;2022-09-09T03:54:32;24.50;99.90
23435;DHT22;11890;45.380;11.028;2022-09-09T03:57:00;24.50;99.90
23435;DHT22;11890;45.380;11.028;2022-09-09T03:59:28;24.50;99.90
23435;DHT22;11890;45.380;11.028;2022-09-09T04:01:57;24.50;99.90
23435;DHT22;11890;45.380;11.028;2022-09-09T04:04:26;24.40;99.90
23435;DHT22;11890;45.380;11.028;2022-09-09T04:06:54;24.40;99.90
23435;DHT22;11890;45.380;11.028;2022-09-09T04:09:38;24.40;99.90
23435;DHT22;11890;45.380;11.028;2022-09-09T04:12:08;24.40;99.90
23435;DHT22;11890;45.380;11.028;2022-09-09T04:14:35;24.30;99.90
23435;DHT22;11890;45.380;11.028;2022-09-09T04:17:05;24.30;99.90
23435;DHT22;11890;45.380;11.028;2022-09-09T04:19:33;24.30;99.90
23435;DHT22;11890;45.380;11.028;2022-09-09T04:22:04;24.20;99.90
23435;DHT22;11890;45.380;11.028;2022-09-09T04:24:32;24.20;99.90
23435;DHT22;11890;45.380;11.028;2022-09-09T04:27:00;24.20;99.90
23435;DHT22;11890;45.380;11.028;2022-09-09T04:29:31;24.10;99.90
23435;DHT22;11890;45.380;11.028;2022-09-09T04:31:59;24.00;99.90
23435;DHT22;11890;45.380;11.028;2022-09-09T04:34:29;24.10;99.90
23435;DHT22;11890;45.380;11.028;2022-09-09T04:37:01;24.10;99.90
23435;DHT22;11890;45.380;11.028;2022-09-09T04:39:33;24.10;99.90
23435;DHT22;11890;45.380;11.028;2022-09-09T04:42:00;24.10;99.90
23435;DHT22;11890;45.380;11.028;2022-09-09T04:44:29;24.10;99.90
23435;DHT22;11890;45.380;11.028;2022-09-09T04:46:57;24.20;99.90
23435;DHT22;11890;45.380;11.028;2022-09-09T04:49:24;24.30;99.90
23435;DHT22;11890;45.380;11.028;2022-09-09T04:52:12;24.30;99.90
23435;DHT22;11890;45.380;11.028;2022-09-09T04:54:40;24.30;99.90
23435;DHT22;11890;45.380;11.028;2022-09-09T04:57:07;24.30;99.90
23435;DHT22;11890;45.380;11.028;2022-09-09T04:59:42;24.30;99.90
23435;DHT22;11890;45.380;11.028;2022-09-09T05:02:10;24.30;99.90
23435;DHT22;11890;45.380;11.028;2022-09-09T05:04:38;24.40;99.90
23435;DHT22;11890;45.380;11.028;2022-09-09T05:07:10;24.40;99.90
23435;DHT22;11890;45.380;11.028;2022-09-09T05:09:39;24.50;99.90
23435;DHT22;11890;45.380;11.028;2022-09-09T05:12:06;24.50;99.90
23435;DHT22;11890;45.380;11.028;2022-09-09T05:15:14;24.50;99.90
23435;DHT22;11890;45.380;11.028;2022-09-09T05:17:41;24.50;99.90
23435;DHT22;11890;45.380;11.028;2022-09-09T05:20:14;24.50;99.90
23435;DHT22;11890;45.380;11.028;2022-09-09T05:22:43;24.50;99.90
23435;DHT22;11890;45.380;11.028;2022-09-09T05:25:11;24.50;99.90
23435;DHT22;11890;45.380;11.028;2022-09-09T05:27:39;24.50;99.90
23435;DHT22;11890;45.380;11.028;2022-09-09T05:30:07;24.50;99.90
23435;DHT22;11890;45.380;11.028;2022-09-09T05:32:40;24.50;99.90
23435;DHT22;11890;45.380;11.028;2022-09-09T05:35:09;24.60;99.90
23435;DHT22;11890;45.380;11.028;2022-09-09T05:37:38;24.60;99.90
23435;DHT22;11890;45.380;11.028;2022-09-09T05:40:07;24.60;99.90
23435;DHT22;11890;45.380;11.028;2022-09-09T05:42:35;24.60;99.90
23435;DHT22;11890;45.380;11.028;2022-09-09T05:45:04;24.50;99.90
23435;DHT22;11890;45.380;11.028;2022-09-09T05:47:35;24.50;99.90
23435;DHT22;11890;45.380;11.028;2022-09-09T05:50:07;24.50;99.90
23435;DHT22;11890;45.380;11.028;2022-09-09T05:52:34;24.50;99.90
23435;DHT22;11890;45.380;11.028;2022-09-09T05:55:21;24.50;99.90
23435;DHT22;11890;45.380;11.028;2022-09-09T05:57:49;24.50;99.90
23435;DHT22;11890;45.380;11.028;2022-09-09T06:00:19;24.50;99.90
23435;DHT22;11890;45.380;11.028;2022-09-09T06:02:53;24.40;99.90
23435;DHT22;11890;45.380;11.028;2022-09-09T06:05:23;24.40;99.90
23435;DHT22;11890;45.380;11.028;2022-09-09T06:07:56;24.50;99.90
23435;DHT22;11890;45.380;11.028;2022-09-09T06:10:30;24.60;99.90
23435;DHT22;11890;45.380;11.028;2022-09-09T06:12:57;24.60;99.90
23435;DHT22;11890;45.380;11.028;2022-09-09T06:15:25;24.70;99.90
23435;DHT22;11890;45.380;11.028;2022-09-09T06:17:54;24.70;99.90
23435;DHT22;11890;45.380;11.028;2022-09-09T06:20:24;24.70;99.90
23435;DHT22;11890;45.380;11.028;2022-09-09T06:22:59;24.80;99.90
23435;DHT22;11890;45.380;11.028;2022-09-09T06:25:26;24.80;99.90
23435;DHT22;11890;45.380;11.028;2022-09-09T06:27:57;24.80;99.90
23435;DHT22;11890;45.380;11.028;2022-09-09T06:30:24;24.90;99.90
23435;DHT22;11890;45.380;11.028;2022-09-09T06:32:55;24.90;99.90
23435;DHT22;11890;45.380;11.028;2022-09-09T06:35:23;24.90;99.90
23435;DHT22;11890;45.380;11.028;2022-09-09T06:37:52;25.00;99.90
23435;DHT22;11890;45.380;11.028;2022-09-09T06:40:20;25.00;99.90
23435;DHT22;11890;45.380;11.028;2022-09-09T06:42:48;25.00;99.90
23435;DHT22;11890;45.380;11.028;2022-09-09T06:45:39;25.10;99.90
23435;DHT22;11890;45.380;11.028;2022-09-09T06:48:08;25.20;99.90
23435;DHT22;11890;45.380;11.028;2022-09-09T06:50:36;25.20;99.90
23435;DHT22;11890;45.380;11.028;2022-09-09T06:53:03;25.30;99.90
23435;DHT22;11890;45.380;11.028;2022-09-09T06:55:31;25.30;99.90
23435;DHT22;11890;45.380;11.028;2022-09-09T06:58:00;25.30;99.90
23435;DHT22;11890;45.380;11.028;2022-09-09T07:00:30;25.40;99.90
23435;DHT22;11890;45.380;11.028;2022-09-09T07:02:58;25.40;99.90
23435;DHT22;11890;45.380;11.028;2022-09-09T07:05:25;25.40;99.90
23435;DHT22;11890;45.380;11.028;2022-09-09T07:07:53;25.40;99.90
23435;DHT22;11890;45.380;11.028;2022-09-09T07:10:21;25.50;99.90
23435;DHT22;11890;45.380;11.028;2022-09-09T07:12:52;25.50;99.90
23435;DHT22;11890;45.380;11.028;2022-09-09T07:15:23;25.50;99.90
23435;DHT22;11890;45.380;11.028;2022-09-09T07:17:50;25.50;99.90
23435;DHT22;11890;45.380;11.028;2022-09-09T07:20:18;25.50;99.90
23435;DHT22;11890;45.380;11.028;2022-09-09T07:22:45;25.50;99.90
23435;DHT22;11890;45.380;11.028;2022-09-09T07:25:30;25.50;99.90
23435;DHT22;11890;45.380;11.028;2022-09-09T07:27:58;25.60;99.90
23435;DHT22;11890;45.380;11.028;2022-09-09T07:30:28;25.60;99.90
23435;DHT22;11890;45.380;11.028;2022-09-09T07:32:56;25.60;99.90
23435;DHT22;11890;45.380;11.028;2022-09-09T07:35:24;25.70;99.90
23435;DHT22;11890;45.380;11.028;2022-09-09T07:37:52;25.70;99.90
23435;DHT22;11890;45.380;11.028;2022-09-09T07:40:20;25.70;99.90
23435;DHT22;11890;45.380;11.028;2022-09-09T07:42:50;25.70;99.90
23435;DHT22;11890;45.380;11.028;2022-09-09T07:45:17;25.80;99.90
23435;DHT22;11890;45.380;11.028;2022-09-09T07:47:45;25.80;99.90
23435;DHT22;11890;45.380;11.028;2022-09-09T07:50:12;25.90;99.90
23435;DHT22;11890;45.380;11.028;2022-09-09T07:52:39;26.00;99.90
23435;DHT22;11890;45.380;11.028;2022-09-09T07:55:07;26.10;99.90
23435;DHT22;11890;45.380;11.028;2022-09-09T07:57:36;26.10;99.90
23435;DHT22;11890;45.380;11.028;2022-09-09T08:00:04;26.20;99.90
23435;DHT22;11890;45.380;11.028;2022-09-09T08:02:38;26.20;99.90
23435;DHT22;11890;45.380;11.028;2022-09-09T08:05:07;26.30;99.90
23435;DHT22;11890;45.380;11.028;2022-09-09T08:07:36;26.30;99.90
23435;DHT22;11890;45.380;11.028;2022-09-09T08:10:04;26.30;99.90
23435;DHT22;11890;45.380;11.028;2022-09-09T08:12:35;26.40;99.90
23435;DHT22;11890;45.380;11.028;2022-09-09T08:15:06;26.40;99.90
23435;DHT22;11890;45.380;11.028;2022-09-09T08:17:34;26.50;99.90
23435;DHT22;11890;45.380;11.028;2022-09-09T08:20:05;26.50;99.90
23435;DHT22;11890;45.380;11.028;2022-09-09T08:22:35;26.50;99.90
23435;DHT22;11890;45.380;11.028;2022-09-09T08:25:05;26.60;99.90
23435;DHT22;11890;45.380;11.028;2022-09-09T08:27:35;26.70;99.90
23435;DHT22;11890;45.380;11.028;2022-09-09T08:30:23;26.70;99.90
23435;DHT22;11890;45.380;11.028;2022-09-09T08:32:51;26.80;99.90
23435;DHT22;11890;45.380;11.028;2022-09-09T08:35:28;26.80;99.90
23435;DHT22;11890;45.380;11.028;2022-09-09T08:37:59;26.80;99.90
23435;DHT22;11890;45.380;11.028;2022-09-09T08:40:33;26.80;99.90
23435;DHT22;11890;45.380;11.028;2022-09-09T08:43:06;27.00;99.90
23435;DHT22;11890;45.380;11.028;2022-09-09T08:51:32;27.10;99.90
23435;DHT22;11890;45.380;11.028;2022-09-09T08:54:17;27.10;99.90
23435;DHT22;11890;45.380;11.028;2022-09-09T08:57:11;27.10;99.90
23435;DHT22;11890;45.380;11.028;2022-09-09T08:59:41;27.30;99.90
23435;DHT22;11890;45.380;11.028;2022-09-09T09:02:34;27.20;99.90
23435;DHT22;11890;45.380;11.028;2022-09-09T09:05:36;27.20;99.90
23435;DHT22;11890;45.380;11.028;2022-09-09T09:08:29;27.30;99.90
23435;DHT22;11890;45.380;11.028;2022-09-09T09:10:59;27.30;99.90
23435;DHT22;11890;45.380;11.028;2022-09-09T09:13:47;27.30;99.90
23435;DHT22;11890;45.380;11.028;2022-09-09T09:19:23;27.50;99.90
23435;DHT22;11890;45.380;11.028;2022-09-09T09:26:59;27.50;99.90
23435;DHT22;11890;45.380;11.028;2022-09-09T09:29:28;27.60;99.90
23435;DHT22;11890;45.380;11.028;2022-09-09T09:31:59;27.70;99.90
23435;DHT22;11890;45.380;11.028;2022-09-09T09:34:30;27.80;99.90
23435;DHT22;11890;45.380;11.028;2022-09-09T09:36:59;27.80;99.90
23435;DHT22;11890;45.380;11.028;2022-09-09T09:39:34;27.90;99.90
23435;DHT22;11890;45.380;11.028;2022-09-09T09:42:25;27.80;99.90
23435;DHT22;11890;45.380;11.028;2022-09-09T09:45:16;27.90;99.90
23435;DHT22;11890;45.380;11.028;2022-09-09T09:47:56;28.10;99.90
23435;DHT22;11890;45.380;11.028;2022-09-09T09:50:47;28.40;99.90
23435;DHT22;11890;45.380;11.028;2022-09-09T09:53:24;28.50;99.90
23435;DHT22;11890;45.380;11.028;2022-09-09T09:58:33;28.50;99.90
23435;DHT22;11890;45.380;11.028;2022-09-09T10:01:18;28.60;99.90
23435;DHT22;11890;45.380;11.028;2022-09-09T10:04:02;28.60;99.90
23435;DHT22;11890;45.380;11.028;2022-09-09T10:06:35;28.60;99.90
23435;DHT22;11890;45.380;11.028;2022-09-09T10:09:27;28.40;99.90
23435;DHT22;11890;45.380;11.028;2022-09-09T10:17:42;26.70;99.90
23435;DHT22;11890;45.380;11.028;2022-09-09T10:23:29;25.60;99.90
23435;DHT22;11890;45.380;11.028;2022-09-09T10:42:59;24.50;99.90
23435;DHT22;11890;45.380;11.028;2022-09-09T10:45:55;24.60;99.90
23435;DHT22;11890;45.380;11.028;2022-09-09T10:56:58;24.70;99.90
23435;DHT22;11890;45.380;11.028;2022-09-09T10:59:33;24.70;99.90
23435;DHT22;11890;45.380;11.028;2022-09-09T11:02:12;24.70;99.90
23435;DHT22;11890;45.380;11.028;2022-09-09T11:04:44;24.70;99.90
23435;DHT22;11890;45.380;11.028;2022-09-09T11:07:21;24.80;99.90
23435;DHT22;11890;45.380;11.028;2022-09-09T11:09:56;25.00;99.90
23435;DHT22;11890;45.380;11.028;2022-09-09T11:12:51;25.40;99.90
23435;DHT22;11890;45.380;11.028;2022-09-09T11:15:35;25.70;99.90
23435;DHT22;11890;45.380;11.028;2022-09-09T11:18:18;25.90;99.90
23435;DHT22;11890;45.380;11.028;2022-09-09T11:20:48;25.90;99.90
23435;DHT22;11890;45.380;11.028;2022-09-09T11:23:24;25.80;99.90
23435;DHT22;11890;45.380;11.028;2022-09-09T11:26:05;25.70;99.90
23435;DHT22;11890;45.380;11.028;2022-09-09T11:28:48;25.60;99.90
23435;DHT22;11890;45.380;11.028;2022-09-09T11:31:49;25.60;99.90
23435;DHT22;11890;45.380;11.028;2022-09-09T11:40:28;26.50;99.90
23435;DHT22;11890;45.380;11.028;2022-09-09T11:43:24;26.70;99.90
23435;DHT22;11890;45.380;11.028;2022-09-09T11:46:00;26.90;99.90
23435;DHT22;11890;45.380;11.028;2022-09-09T11:48:41;27.10;99.90
23435;DHT22;11890;45.380;11.028;2022-09-09T11:51:31;27.10;99.90
23435;DHT22;11890;45.380;11.028;2022-09-09T11:54:28;27.20;99.90
23435;DHT22;11890;45.380;11.028;2022-09-09T11:56:57;27.30;99.90
23435;DHT22;11890;45.380;11.028;2022-09-09T12:01:57;27.50;99.90
23435;DHT22;11890;45.380;11.028;2022-09-09T12:09:55;27.70;99.90
23435;DHT22;11890;45.380;11.028;2022-09-09T12:12:35;27.70;99.90
23435;DHT22;11890;45.380;11.028;2022-09-09T12:17:43;27.80;99.90
23435;DHT22;11890;45.380;11.028;2022-09-09T12:20:21;27.80;99.90
23435;DHT22;11890;45.380;11.028;2022-09-09T12:23:14;27.70;99.90
23435;DHT22;11890;45.380;11.028;2022-09-09T12:36:42;28.10;99.90
23435;DHT22;11890;45.380;11.028;2022-09-09T12:39:37;28.10;99.90
23435;DHT22;11890;45.380;11.028;2022-09-09T12:42:19;28.10;99.90
23435;DHT22;11890;45.380;11.028;2022-09-09T12:44:59;28.10;99.90
23435;DHT22;11890;45.380;11.028;2022-09-09T12:47:43;28.10;99.90
23435;DHT22;11890;45.380;11.028;2022-09-09T12:50:21;28.20;99.90
23435;DHT22;11890;45.380;11.028;2022-09-09T12:52:57;28.10;99.90
23435;DHT22;11890;45.380;11.028;2022-09-09T12:55:31;28.20;99.90
23435;DHT22;11890;45.380;11.028;2022-09-09T12:58:05;28.30;99.90
23435;DHT22;11890;45.380;11.028;2022-09-09T13:00:34;28.20;99.90
23435;DHT22;11890;45.380;11.028;2022-09-09T13:03:24;28.20;99.90
23435;DHT22;11890;45.380;11.028;2022-09-09T13:05:53;28.20;99.90
23435;DHT22;11890;45.380;11.028;2022-09-09T13:08:21;28.10;99.90
23435;DHT22;11890;45.380;11.028;2022-09-09T13:10:55;28.20;99.90
23435;DHT22;11890;45.380;11.028;2022-09-09T13:13:51;28.20;99.90
23435;DHT22;11890;45.380;11.028;2022-09-09T13:16:34;28.30;99.90
23435;DHT22;11890;45.380;11.028;2022-09-09T13:19:13;28.30;99.90
23435;DHT22;11890;45.380;11.028;2022-09-09T13:21:41;28.30;99.90
23435;DHT22;11890;45.380;11.028;2022-09-09T13:24:36;28.30;99.90
23435;DHT22;11890;45.380;11.028;2022-09-09T13:27:26;28.40;99.90
23435;DHT22;11890;45.380;11.028;2022-09-09T13:29:56;28.40;99.90
23435;DHT22;11890;45.380;11.028;2022-09-09T13:32:25;28.50;98.90
23435;DHT22;11890;45.380;11.028;2022-09-09T13:34:58;28.50;98.70
23435;DHT22;11890;45.380;11.028;2022-09-09T13:37:35;28.50;97.80
23435;DHT22;11890;45.380;11.028;2022-09-09T13:40:19;28.50;99.90
23435;DHT22;11890;45.380;11.028;2022-09-09T13:42:52;28.40;98.10
23435;DHT22;11890;45.380;11.028;2022-09-09T13:45:23;28.40;99.70
23435;DHT22;11890;45.380;11.028;2022-09-09T13:47:54;28.40;99.90
23435;DHT22;11890;45.380;11.028;2022-09-09T13:50:25;28.30;98.50
23435;DHT22;11890;45.380;11.028;2022-09-09T13:52:55;28.30;97.70
23435;DHT22;11890;45.380;11.028;2022-09-09T13:55:29;28.30;99.00
23435;DHT22;11890;45.380;11.028;2022-09-09T13:58:02;28.30;99.90
23435;DHT22;11890;45.380;11.028;2022-09-09T14:00:31;28.20;99.90
23435;DHT22;11890;45.380;11.028;2022-09-09T14:02:59;28.20;99.90
23435;DHT22;11890;45.380;11.028;2022-09-09T14:05:34;28.20;99.90
23435;DHT22;11890;45.380;11.028;2022-09-09T14:08:07;28.00;99.90
23435;DHT22;11890;45.380;11.028;2022-09-09T14:10:41;27.90;99.90
23435;DHT22;11890;45.380;11.028;2022-09-09T14:13:09;27.80;99.90
23435;DHT22;11890;45.380;11.028;2022-09-09T14:15:36;27.80;99.90
23435;DHT22;11890;45.380;11.028;2022-09-09T14:18:04;27.80;99.90
23435;DHT22;11890;45.380;11.028;2022-09-09T14:20:32;27.70;99.90
23435;DHT22;11890;45.380;11.028;2022-09-09T14:23:00;27.70;99.90
23435;DHT22;11890;45.380;11.028;2022-09-09T14:25:29;27.70;99.90
23435;DHT22;11890;45.380;11.028;2022-09-09T14:27:57;27.70;99.90
23435;DHT22;11890;45.380;11.028;2022-09-09T14:30:24;27.70;99.90
23435;DHT22;11890;45.380;11.028;2022-09-09T14:32:52;27.70;99.90
23435;DHT22;11890;45.380;11.028;2022-09-09T14:35:19;27.70;99.90
23435;DHT22;11890;45.380;11.028;2022-09-09T14:37:46;27.70;99.90
23435;DHT22;11890;45.380;11.028;2022-09-09T14:40:23;27.60;99.90
23435;DHT22;11890;45.380;11.028;2022-09-09T14:42:52;27.60;99.90
23435;DHT22;11890;45.380;11.028;2022-09-09T14:45:55;27.70;99.90
23435;DHT22;11890;45.380;11.028;2022-09-09T14:48:23;27.70;99.90
23435;DHT22;11890;45.380;11.028;2022-09-09T14:50:50;27.70;99.90
23435;DHT22;11890;45.380;11.028;2022-09-09T14:53:17;27.70;99.90
23435;DHT22;11890;45.380;11.028;2022-09-09T14:55:48;27.70;99.90
23435;DHT22;11890;45.380;11.028;2022-09-09T14:58:16;27.60;99.90
23435;DHT22;11890;45.380;11.028;2022-09-09T15:00:43;27.60;99.90
23435;DHT22;11890;45.380;11.028;2022-09-09T15:03:10;27.70;99.90
23435;DHT22;11890;45.380;11.028;2022-09-09T15:05:38;27.60;99.90
23435;DHT22;11890;45.380;11.028;2022-09-09T15:08:05;27.60;99.80
23435;DHT22;11890;45.380;11.028;2022-09-09T15:10:35;27.60;99.90
23435;DHT22;11890;45.380;11.028;2022-09-09T15:13:05;27.60;99.60
23435;DHT22;11890;45.380;11.028;2022-09-09T15:15:33;27.60;99.90
23435;DHT22;11890;45.380;11.028;2022-09-09T15:18:05;27.50;99.90
23435;DHT22;11890;45.380;11.028;2022-09-09T15:20:32;27.50;99.90
23435;DHT22;11890;45.380;11.028;2022-09-09T15:23:10;27.50;99.90
23435;DHT22;11890;45.380;11.028;2022-09-09T15:25:38;27.40;99.90
23435;DHT22;11890;45.380;11.028;2022-09-09T15:28:05;27.40;99.90
23435;DHT22;11890;45.380;11.028;2022-09-09T15:30:32;27.30;99.90
23435;DHT22;11890;45.380;11.028;2022-09-09T15:33:00;27.30;99.90
23435;DHT22;11890;45.380;11.028;2022-09-09T15:35:37;27.30;99.90
23435;DHT22;11890;45.380;11.028;2022-09-09T15:38:04;27.30;99.90
23435;DHT22;11890;45.380;11.028;2022-09-09T15:40:32;27.20;99.90
23435;DHT22;11890;45.380;11.028;2022-09-09T15:43:06;27.20;99.90
23435;DHT22;11890;45.380;11.028;2022-09-09T15:45:37;27.20;99.90
23435;DHT22;11890;45.380;11.028;2022-09-09T15:48:05;27.10;99.90
23435;DHT22;11890;45.380;11.028;2022-09-09T15:50:32;27.10;99.90
23435;DHT22;11890;45.380;11.028;2022-09-09T15:52:59;27.10;99.90
23435;DHT22;11890;45.380;11.028;2022-09-09T15:55:27;27.00;99.90
23435;DHT22;11890;45.380;11.028;2022-09-09T15:57:54;27.10;99.90
23435;DHT22;11890;45.380;11.028;2022-09-09T16:00:22;27.10;99.90
23435;DHT22;11890;45.380;11.028;2022-09-09T16:02:50;27.00;99.90
23435;DHT22;11890;45.380;11.028;2022-09-09T16:05:17;27.10;99.90
23435;DHT22;11890;45.380;11.028;2022-09-09T16:07:45;27.00;99.90
23435;DHT22;11890;45.380;11.028;2022-09-09T16:10:13;27.00;99.90
23435;DHT22;11890;45.380;11.028;2022-09-09T16:12:52;27.00;99.90
23435;DHT22;11890;45.380;11.028;2022-09-09T16:15:19;26.90;99.90
23435;DHT22;11890;45.380;11.028;2022-09-09T16:17:49;26.90;99.90
23435;DHT22;11890;45.380;11.028;2022-09-09T16:20:16;26.90;99.90
23435;DHT22;11890;45.380;11.028;2022-09-09T16:22:47;26.80;99.90
23435;DHT22;11890;45.380;11.028;2022-09-09T16:25:15;26.80;99.90
23435;DHT22;11890;45.380;11.028;2022-09-09T16:27:45;26.80;99.90
23435;DHT22;11890;45.380;11.028;2022-09-09T16:30:27;26.80;99.90
23435;DHT22;11890;45.380;11.028;2022-09-09T16:33:04;26.80;99.90
23435;DHT22;11890;45.380;11.028;2022-09-09T16:36:36;26.80;99.90
23435;DHT22;11890;45.380;11.028;2022-09-09T16:39:41;26.80;99.90
23435;DHT22;11890;45.380;11.028;2022-09-09T16:42:09;26.70;99.90
23435;DHT22;11890;45.380;11.028;2022-09-09T16:44:46;26.70;99.90
23435;DHT22;11890;45.380;11.028;2022-09-09T16:47:18;26.70;99.90
23435;DHT22;11890;45.380;11.028;2022-09-09T16:49:51;26.70;99.90
23435;DHT22;11890;45.380;11.028;2022-09-09T16:52:19;26.60;99.90
23435;DHT22;11890;45.380;11.028;2022-09-09T16:54:46;26.60;99.90
23435;DHT22;11890;45.380;11.028;2022-09-09T16:57:15;26.50;99.90
23435;DHT22;11890;45.380;11.028;2022-09-09T16:59:42;26.50;99.90
23435;DHT22;11890;45.380;11.028;2022-09-09T17:02:23;26.50;99.90
23435;DHT22;11890;45.380;11.028;2022-09-09T17:04:55;26.50;99.90
23435;DHT22;11890;45.380;11.028;2022-09-09T17:07:26;26.60;99.90
23435;DHT22;11890;45.380;11.028;2022-09-09T17:10:02;26.50;99.90
23435;DHT22;11890;45.380;11.028;2022-09-09T17:12:48;26.40;99.90
23435;DHT22;11890;45.380;11.028;2022-09-09T17:15:16;26.30;99.90
23435;DHT22;11890;45.380;11.028;2022-09-09T17:17:45;26.30;99.90
23435;DHT22;11890;45.380;11.028;2022-09-09T17:20:19;26.30;99.90
23435;DHT22;11890;45.380;11.028;2022-09-09T17:22:47;26.30;99.90
23435;DHT22;11890;45.380;11.028;2022-09-09T17:25:38;26.30;99.90
23435;DHT22;11890;45.380;11.028;2022-09-09T17:28:06;26.30;99.90
23435;DHT22;11890;45.380;11.028;2022-09-09T17:30:34;26.20;99.90
23435;DHT22;11890;45.380;11.028;2022-09-09T17:33:08;26.10;99.90
23435;DHT22;11890;45.380;11.028;2022-09-09T17:35:46;26.10;99.90
23435;DHT22;11890;45.380;11.028;2022-09-09T17:38:15;26.10;99.90
23435;DHT22;11890;45.380;11.028;2022-09-09T17:40:43;26.10;99.90
23435;DHT22;11890;45.380;11.028;2022-09-09T17:43:10;26.10;99.90
23435;DHT22;11890;45.380;11.028;2022-09-09T17:45:39;26.00;99.90
23435;DHT22;11890;45.380;11.028;2022-09-09T17:48:07;26.00;99.90
23435;DHT22;11890;45.380;11.028;2022-09-09T17:50:34;26.00;99.90
23435;DHT22;11890;45.380;11.028;2022-09-09T17:53:02;26.00;99.90
23435;DHT22;11890;45.380;11.028;2022-09-09T17:55:48;25.90;99.90
23435;DHT22;11890;45.380;11.028;2022-09-09T17:58:19;26.00;99.90
23435;DHT22;11890;45.380;11.028;2022-09-09T18:00:46;25.90;99.90